createdAt,value
2019-05-10T00:05:47.805Z,92.00
2019-05-10T00:11:53.484Z,92.50
2019-05-10T00:17:55.466Z,93.00
2019-05-10T00:23:59.889Z,92.60
2019-05-10T00:30:06.669Z,92.40
2019-05-10T00:36:08.255Z,92.40
2019-05-10T00:42:09.756Z,92.50
2019-05-10T00:48:11.197Z,92.40
2019-05-10T00:54:13.686Z,92.90
2019-05-10T01:00:15.777Z,92.50
2019-05-10T01:06:17.556Z,92.50
2019-05-10T01:12:19.470Z,92.30
2019-05-10T01:18:20.934Z,92.40
2019-05-10T01:24:22.768Z,92.10
2019-05-10T01:30:31.307Z,92.10
2019-05-10T01:36:34.287Z,92.00
2019-05-10T01:42:51.561Z,91.70
2019-05-10T01:49:07.342Z,91.80
2019-05-10T01:55:16.541Z,91.80
2019-05-10T02:01:18.087Z,91.70
2019-05-10T02:07:19.551Z,92.10
2019-05-10T02:13:21.821Z,92.60
2019-05-10T02:19:23.350Z,92.90
2019-05-10T02:25:24.908Z,92.70
2019-05-10T02:31:26.386Z,92.60
2019-05-10T02:37:28.810Z,92.10
2019-05-10T02:43:30.591Z,92.00
2019-05-10T02:49:32.464Z,91.80
2019-05-10T02:55:35.296Z,91.80
2019-05-10T03:01:40.643Z,91.90
2019-05-10T03:07:43.782Z,92.10
2019-05-10T03:13:50.359Z,92.10
2019-05-10T03:19:53.164Z,92.00
2019-05-10T03:25:54.902Z,92.10
2019-05-10T03:31:56.606Z,91.80
2019-05-10T03:37:58.381Z,91.60
2019-05-10T03:43:59.880Z,91.90
2019-05-10T03:50:02.358Z,91.80
2019-05-10T03:56:04.187Z,91.90
2019-05-10T04:02:05.892Z,92.10
2019-05-10T04:08:08.664Z,92.00
2019-05-10T04:14:10.278Z,92.10
2019-05-10T04:20:12.155Z,91.80
2019-05-10T04:26:13.910Z,91.50
2019-05-10T04:32:15.588Z,91.30
2019-05-10T04:38:17.316Z,90.90
2019-05-10T04:44:18.771Z,90.80
2019-05-10T04:50:20.315Z,90.60
2019-05-10T04:56:21.982Z,90.80
2019-05-10T05:02:23.652Z,91.30
2019-05-10T05:08:25.216Z,92.00
2019-05-10T05:14:29.248Z,91.40
2019-05-10T05:20:30.889Z,91.30
2019-05-10T05:26:32.643Z,90.20
2019-05-10T05:32:38.683Z,89.20
2019-05-10T05:38:40.336Z,87.00
2019-05-10T05:44:40.948Z,86.40
2019-05-10T05:50:42.431Z,83.70
2019-05-10T05:56:44.586Z,83.10
2019-05-10T06:02:47.270Z,82.30
2019-05-10T06:08:49.001Z,83.10
2019-05-10T06:14:52.341Z,82.50
2019-05-10T06:20:53.780Z,78.70
2019-05-10T06:26:58.212Z,77.00
2019-05-10T06:33:00.852Z,79.20
2019-05-10T06:39:05.657Z,82.00
2019-05-10T06:45:14.521Z,82.40
2019-05-10T06:51:12.396Z,82.00
2019-05-10T06:57:17.670Z,81.40
2019-05-10T07:03:17.330Z,80.40
2019-05-10T07:09:18.918Z,80.40
2019-05-10T07:15:20.606Z,79.30
2019-05-10T07:21:22.308Z,79.20
2019-05-10T07:27:24.229Z,79.30
2019-05-10T07:33:26.074Z,78.80
2019-05-10T07:39:27.957Z,78.10
2019-05-10T07:45:32.343Z,77.70
2019-05-10T07:51:33.911Z,77.80
2019-05-10T07:57:35.380Z,77.70
2019-05-10T08:03:44.173Z,76.90
2019-05-10T08:09:44.801Z,76.60
2019-05-10T08:15:43.649Z,74.10
2019-05-10T08:21:48.796Z,71.70
2019-05-10T08:27:51.195Z,70.70
2019-05-10T08:33:58.584Z,73.40
2019-05-10T08:39:56.195Z,76.10
2019-05-10T08:45:58.125Z,75.10
2019-05-10T08:52:02.487Z,76.90
2019-05-10T08:58:03.805Z,76.90
2019-05-10T09:04:07.154Z,77.60
2019-05-10T09:10:09.824Z,75.90
2019-05-10T09:16:13.667Z,75.10
2019-05-10T09:22:14.906Z,76.40
2019-05-10T09:28:17.183Z,77.80
2019-05-10T09:34:23.832Z,76.60
2019-05-10T09:40:22.278Z,73.60
2019-05-10T09:46:23.747Z,72.50
2019-05-10T09:52:26.326Z,71.00
2019-05-10T09:58:28.610Z,72.10
2019-05-10T10:04:30.363Z,70.00
2019-05-10T10:10:32.645Z,70.50
2019-05-10T10:16:34.145Z,69.60
2019-05-10T10:22:37.944Z,69.00
2019-05-10T10:28:39.848Z,67.60
2019-05-10T10:34:43.143Z,67.80
2019-05-10T10:40:46.071Z,61.60
2019-05-10T10:46:48.102Z,65.50
2019-05-10T10:52:49.793Z,66.90
2019-05-10T10:58:51.311Z,70.30
2019-05-10T11:04:52.789Z,71.50
2019-05-10T11:10:54.313Z,70.80
2019-05-10T11:16:57.254Z,69.20
2019-05-10T11:22:59.848Z,65.40
2019-05-10T11:29:01.504Z,65.20
2019-05-10T11:35:05.540Z,60.00
2019-05-10T11:41:11.735Z,60.30
2019-05-10T11:47:23.450Z,56.70
2019-05-10T11:53:17.278Z,55.50
2019-05-10T11:59:17.591Z,57.10
2019-05-10T12:05:22.802Z,58.80
2019-05-10T12:11:32.970Z,61.30
2019-05-10T12:17:25.744Z,64.60
2019-05-10T12:23:31.071Z,64.20
2019-05-10T12:29:31.647Z,60.40
2019-05-10T12:35:39.811Z,57.70
2019-05-10T12:41:39.626Z,53.90
2019-05-10T12:47:41.451Z,53.50
2019-05-10T12:53:47.620Z,55.30
2019-05-10T12:59:46.974Z,60.40
2019-05-10T13:05:53.202Z,79.50
2019-05-10T13:11:57.110Z,91.60
2019-05-10T13:17:56.221Z,96.00
2019-05-10T13:23:57.777Z,92.20
2019-05-10T13:29:59.348Z,90.20
2019-05-10T13:36:00.855Z,86.30
2019-05-10T13:42:03.286Z,85.60
2019-05-10T13:48:05.779Z,90.00
2019-05-10T13:54:07.344Z,90.20
2019-05-10T14:00:09.520Z,87.50
2019-05-10T14:06:11.904Z,87.70
2019-05-10T14:12:16.217Z,86.40
2019-05-10T14:18:18.033Z,86.80
2019-05-10T14:24:19.478Z,90.60
2019-05-10T14:30:21.081Z,91.50
2019-05-10T14:36:22.671Z,90.10
2019-05-10T14:42:31.163Z,89.10
2019-05-10T14:48:35.466Z,89.50
2019-05-10T14:54:43.545Z,89.20
2019-05-10T15:00:39.609Z,88.50
2019-05-10T15:06:41.210Z,90.30
2019-05-10T15:12:43.088Z,90.90
2019-05-10T15:18:44.568Z,91.50
2019-05-10T15:24:46.009Z,91.30
2019-05-10T15:30:52.328Z,91.60
2019-05-10T15:36:50.808Z,92.00
2019-05-10T15:42:52.318Z,91.10
2019-05-10T15:48:53.895Z,92.00
2019-05-10T15:54:55.386Z,92.90
2019-05-10T16:00:56.828Z,90.90
2019-05-10T16:06:58.563Z,92.60
2019-05-10T16:13:00.022Z,91.70
2019-05-10T16:19:01.546Z,91.80
2019-05-10T16:25:04.958Z,91.90
2019-05-10T16:31:06.628Z,92.30
2019-05-10T16:37:08.120Z,91.10
2019-05-10T16:43:13.424Z,89.20
2019-05-10T16:49:15.582Z,87.30
2019-05-10T16:55:16.652Z,89.70
2019-05-10T17:01:18.564Z,89.30
2019-05-10T17:07:21.466Z,90.50
2019-05-10T17:13:22.957Z,91.20
2019-05-10T17:19:27.817Z,91.80
2019-05-10T17:25:28.700Z,91.90
2019-05-10T17:31:30.442Z,91.40
2019-05-10T17:37:35.777Z,90.80
2019-05-10T17:43:35.238Z,89.50
2019-05-10T17:49:36.770Z,87.10
2019-05-10T17:55:38.609Z,90.00
2019-05-10T18:01:40.186Z,90.90
2019-05-10T18:07:41.739Z,91.20
2019-05-10T18:13:43.295Z,92.00
2019-05-10T18:19:44.897Z,93.70
2019-05-10T18:25:52.510Z,94.50
2019-05-10T18:31:56.066Z,94.60
2019-05-10T18:37:59.563Z,94.30
2019-05-10T18:43:58.369Z,94.20
2019-05-10T18:50:00.848Z,94.00
2019-05-10T18:56:02.603Z,93.80
2019-05-10T19:02:04.405Z,93.90
2019-05-10T19:08:06.496Z,94.70
2019-05-10T19:14:08.268Z,96.70
2019-05-10T19:20:15.960Z,96.80
2019-05-10T19:26:13.433Z,97.10
2019-05-10T19:32:18.211Z,97.10
2019-05-10T19:38:18.727Z,97.20
2019-05-10T19:44:20.347Z,97.30
2019-05-10T19:50:24.240Z,97.50
2019-05-10T19:56:30.067Z,97.30
2019-05-10T20:02:30.576Z,97.30
2019-05-10T20:08:32.172Z,97.40
2019-05-10T20:14:33.711Z,97.20
2019-05-10T20:20:35.278Z,96.80
2019-05-10T20:26:36.810Z,96.80
2019-05-10T20:32:38.402Z,97.10
2019-05-10T20:38:40.037Z,97.40
2019-05-10T20:44:43.118Z,97.30
2019-05-10T20:50:44.577Z,97.80
2019-05-10T20:56:46.142Z,98.00
2019-05-10T21:02:47.609Z,97.90
2019-05-10T21:08:49.127Z,97.70
2019-05-10T21:14:50.630Z,97.60
2019-05-10T21:20:52.210Z,97.50
2019-05-10T21:26:54.446Z,97.80
2019-05-10T21:33:02.657Z,98.00
2019-05-10T21:39:05.888Z,98.30
2019-05-10T21:45:07.691Z,98.50
2019-05-10T21:51:14.685Z,98.40
2019-05-10T21:57:16.505Z,98.80
2019-05-10T22:03:18.473Z,98.90
2019-05-10T22:09:20.164Z,98.80
2019-05-10T22:15:21.880Z,99.00
2019-05-10T22:21:25.916Z,98.90
2019-05-10T22:27:27.481Z,98.80
2019-05-10T22:33:29.208Z,98.90
2019-05-10T22:39:30.760Z,98.10
2019-05-10T22:45:32.528Z,98.30
2019-05-10T22:51:33.921Z,98.10
2019-05-10T22:57:35.649Z,98.10
2019-05-10T23:03:38.220Z,98.50
2019-05-10T23:09:39.898Z,98.10
2019-05-10T23:15:41.448Z,98.00
2019-05-10T23:21:42.899Z,97.90
2019-05-10T23:27:44.709Z,97.80
2019-05-10T23:33:52.234Z,98.00
2019-05-10T23:39:53.750Z,97.80
2019-05-10T23:45:55.237Z,97.60
2019-05-10T23:51:56.687Z,97.50
2019-05-10T23:57:59.368Z,97.50
